Details for Norwegian Air Shuttle at ESSA




Go Back


Latest METAR
Local Time

ESSA 221750Z 16010KT CAVOK 21/05 Q1017 NOSIG

22/05/2018, 19:55:55

Description
Results
Norwegian Air Shuttle Logo
Number of Pilots based at ESSA
1 Pilots Based here
Number of Norwegian Air Shuttle Flights Departed from ESSA
3 Flights Departed
Number of Norwegian Air Shuttle Flights Arrived at ESSA
6 Flights Arrived
Number of Norwegian Air Shuttle Schedules Departing from ESSA
134 Schedules
Number of Norwegian Air Shuttle Schedules Arriving at ESSA
137 Schedules
Number of Norwegian Air Shuttle Schedules Departing from ESSA availible today
58 Schedules Today
Number of Norwegian Air Shuttle Schedules Arriving at ESSA availible today
56 Schedules Today
Average Landing Rate at ESSA
-218 fpm
Norwegian Air Shuttle Average Landing Rate at ESSA
-117 fpm
Total Fuel Purchased at ESSA by Norwegian Air Shuttle
22,574.38 kgs / 49,767.48 lbs

Pilots Based at ESSA


Pilot ID
Pilot Name
Pilot Rank
No. of Flights
No. of Flying Hours
David Kurth
6
10.16
Content